Terminal Aerodrome Forecast
Issued by NWS

Home | Current Version | Previous Version | Text Only | Print | Product List | Glossary On
Versions: 1 2 3 4 5 6 7 8 9 10 11 12 13 14 15 16 17 18 19 20 21 22 23 24 25 26 27 28 29 30 31 32 33 34 35 36
000
FTUS41 KBOX 051120
TAFBAF
TAF
KBAF 051120Z 0512/0612 35004KT 3/4SM BR BKN002
     FM051300 VRB03KT P6SM SKC
     FM051800 16005KT P6SM SKC
     FM060300 00000KT P6SM SKC
     FM060900 00000KT 1 1/2SM BR SKC=

USA.gov is the U.S. government's official web portal to all federal, state and local government web resources and services.